Clark, Missouri
Current Conditions -  °F | °C
As of 1:15 AM on Sunday 26 Oct 2014 (Local Time) from KVER Reporting Station
Clear Clear  
Wind Chill: 56°   Ceiling: Unl
Heat Index: 56°   Visibility: 10mi
Dew Point: 50°   Wind: 5mph
Humidity: 79%   Direction: 40°NE
Pressure: 30.02"   Gusts: NA
Location:  39.28°N, 92.34°W
Report Text: KVER 260615Z AUTO 04004KT 10SM CLR 14/10 A3002 RMK AO2 T01350100
Loading
Personal Weather Stations






























Interactive Weather Map
Tropical Storm Tracking
New forecast layout! Learn more

10-Day Weather Forecast

Advertisements
Track Severe Weather on mobile